Date,TemperatureHighF,TemperatureAvgF,TemperatureLowF,DewpointHighF,DewpointAvgF,DewpointLowF,HumidityHigh,HumidityAvg,HumidityLow,PressureMaxIn,PressureMinIn,WindSpeedMaxMPH,WindSpeedAvgMPH,GustSpeedMaxMPH,PrecipitationSumIn
2013-1-1,45,40,35,34,24,-100,79,57,22,30.29,30.21,4,-18,9,0.00
2013-1-2,45,43,42,21,20,20,41,39,38,30.20,30.16,6,4,7,0.00
2013-1-3,54,44,39,34,28,21,72,54,38,30.27,30.16,13,5,0,0.00
2013-1-4,58,48,40,37,31,26,69,54,39,30.29,30.18,10,3,14,0.00
2013-1-5,46,43,40,40,12,-53,79,52,1,30.26,30.07,10,3,14,0.43
2013-1-6,50,42,39,42,-2,-54,96,43,1,30.19,30.07,7,1,11,0.04
2013-1-7,55,44,38,43,38,35,95,81,62,30.25,30.16,12,2,13,0.00
2013-1-8,60,50,42,46,43,40,94,78,60,30.24,30.13,11,3,13,0.00
2013-1-9,46,42,36,40,11,-53,84,52,1,30.14,29.96,14,5,17,0.01
2013-1-10,48,38,31,33,24,-100,86,64,43,30.18,30.05,10,-34,15,0.01
2013-1-11,48,35,33,36,20,-100,84,65,53,30.25,30.12,9,-63,11,0.00
2013-1-12,49,39,32,29,22,16,75,51,33,30.25,30.14,12,4,16,0.00
2013-1-13,48,38,30,24,13,3,69,37,19,30.27,30.18,11,4,17,0.00
2013-1-14,52,42,35,25,17,9,55,38,22,30.40,30.24,9,4,13,0.00
2013-1-15,51,42,36,31,26,18,69,54,39,30.48,30.39,3,1,8,0.00
2013-1-16,58,44,35,38,30,26,72,57,39,30.44,30.25,10,1,11,0.00
2013-1-17,62,51,44,31,23,16,46,35,22,30.26,30.15,13,6,14,0.00
2013-1-18,66,55,48,39,25,14,41,32,22,30.22,30.12,10,3,11,0.00
2013-1-19,66,55,48,32,19,-100,30,26,19,30.24,30.15,9,-12,11,0.00
2013-1-20,66,56,50,34,24,17,42,30,23,30.21,30.11,4,2,12,0.00
2013-1-21,65,55,48,38,26,12,42,33,17,30.16,30.08,9,3,15,0.00
2013-1-22,64,54,46,37,28,19,48,37,28,30.10,29.99,13,2,18,0.00
2013-1-23,58,52,45,43,13,-50,73,35,1,30.08,29.94,13,2,19,0.29
2013-1-24,56,50,46,50,5,-50,91,41,1,30.18,30.06,7,1,10,0.00
2013-1-25,63,51,48,53,36,-100,94,69,14,30.18,30.03,6,-59,7,0.00
2013-1-26,55,48,39,49,40,31,98,77,44,30.05,29.94,16,5,21,0.01
2013-1-27,54,42,35,36,31,24,78,66,39,30.17,30.03,8,2,11,0.00
2013-1-28,54,44,36,37,32,29,81,64,42,30.26,30.15,12,2,16,0.00
2013-1-29,58,46,38,40,30,-100,82,60,43,30.34,30.25,8,-36,9,0.00
2013-1-30,62,55,50,46,40,34,75,57,43,30.32,30.25,11,2,12,0.00
2013-1-31,64,54,48,47,41,37,73,62,53,30.28,30.18,5,2,10,0.00
2013-2-1,66,56,49,41,36,33,67,49,33,30.20,30.11,13,4,15,0.00
2013-2-2,62,50,44,46,32,-100,88,62,1,30.28,30.18,13,-21,13,0.00
2013-2-3,57,47,40,48,-9,-53,77,32,1,30.25,30.13,6,1,11,0.00
2013-2-4,56,46,38,46,5,-55,97,44,1,30.16,30.06,5,0,6,0.01
2013-2-5,58,41,38,45,31,-100,98,82,61,30.15,30.04,10,-64,12,0.01
2013-2-6,58,45,38,42,37,32,87,74,46,30.18,30.10,10,2,15,0.00
2013-2-7,51,41,37,42,10,-100,94,52,1,30.15,29.99,12,-31,19,0.04
2013-2-8,54,43,35,36,23,-6,78,46,16,30.01,29.93,8,3,19,0.00
2013-2-9,58,45,39,28,17,-100,61,38,20,30.08,29.97,14,-35,20,0.00
2013-2-10,59,47,40,39,30,23,63,51,35,30.12,30.01,8,2,13,0.00
2013-2-11,62,50,43,37,23,-100,79,38,20,30.22,30.07,13,-9,15,0.00
2013-2-12,61,49,41,39,35,29,87,61,37,30.35,30.22,11,3,12,0.00
2013-2-13,61,50,44,46,39,32,76,66,51,30.33,30.20,7,2,12,0.00
2013-2-14,68,58,49,46,39,32,73,50,39,30.23,30.14,6,3,13,0.00
2013-2-15,72,60,52,40,32,24,49,35,25,30.25,30.19,10,5,11,0.00
2013-2-16,69,57,48,45,37,31,73,47,33,30.22,30.01,11,3,12,0.00
2013-2-17,62,50,40,46,40,36,90,69,44,30.03,29.96,11,3,13,0.00
2013-2-18,50,43,39,40,14,-54,87,55,1,30.01,29.92,18,7,23,0.00
2013-2-19,44,37,34,42,30,-100,100,80,61,29.93,29.72,18,-25,21,0.26
2013-2-20,58,39,30,34,15,-100,90,52,29,30.03,29.84,13,-105,17,0.00
2013-2-21,59,40,35,33,8,-100,77,42,16,30.15,30.01,19,-141,23,0.00
2013-2-22,61,48,42,41,35,30,76,60,39,30.23,30.15,16,4,20,0.00
2013-2-23,57,47,40,36,11,-54,75,32,1,30.24,30.14,15,6,19,0.00
2013-2-24,64,48,42,34,16,-100,69,31,12,30.25,30.15,18,-18,25,0.00
2013-2-25,65,48,38,40,37,33,91,68,33,30.25,30.15,8,2,16,0.00
2013-2-26,66,46,42,39,-1,-100,65,22,12,30.22,30.11,15,-148,28,0.00
2013-2-27,67,54,44,38,27,15,62,36,19,30.33,30.18,9,3,13,0.00
2013-2-28,69,56,46,50,44,38,87,63,46,30.42,30.33,10,2,16,0.00
2013-3-6,54,44,38,41,27,-54,97,65,1,30.04,29.92,15,6,20,0.15
2013-3-7,53,44,37,37,33,30,81,64,44,29.99,29.85,10,4,17,0.00
2013-3-8,61,48,40,41,35,29,86,62,31,30.01,29.82,13,3,20,0.00
2013-3-9,67,52,37,39,30,17,89,50,15,30.29,30.01,13,4,25,0.00
2013-3-10,69,56,48,40,30,19,51,37,26,30.33,30.23,8,3,12,0.00
2013-3-11,64,51,48,41,29,-100,61,46,37,30.25,30.09,8,-37,9,0.00
2013-3-12,74,63,57,51,48,45,69,59,43,30.11,30.06,6,2,10,0.00
2013-3-13,78,63,53,51,47,43,76,58,32,30.14,30.05,7,3,11,0.00
2013-3-14,70,60,51,53,48,37,80,65,42,30.14,30.05,8,2,10,0.00
2013-3-15,67,57,49,51,45,39,76,65,50,30.11,30.01,11,2,15,0.00
2013-3-16,72,57,44,49,42,31,94,60,26,30.09,29.99,13,3,16,0.00
2013-3-17,68,54,42,39,36,30,75,53,29,30.13,30.02,9,2,13,0.00
2013-3-18,67,53,43,44,40,36,84,63,37,30.09,30.01,8,3,12,0.00
2013-3-19,63,51,43,45,42,38,94,71,46,30.13,30.03,15,3,17,0.10
2013-3-20,52,46,44,48,8,-100,98,59,1,30.11,30.05,12,-39,18,0.48
2013-3-21,66,48,38,44,10,-100,74,34,1,30.11,30.00,8,-48,13,0.00
2013-3-22,66,53,44,38,19,5,71,29,11,30.11,30.02,17,5,23,0.00
2013-3-23,67,54,45,41,24,-100,56,33,24,30.13,30.02,11,-10,14,0.00
2013-3-24,71,55,43,45,40,33,80,58,29,30.07,29.95,9,2,14,0.00
2013-3-25,60,47,40,44,40,38,97,79,47,30.01,29.92,12,4,18,0.00
2013-3-26,67,51,41,46,41,39,97,73,41,29.99,29.92,10,3,17,0.00
2013-3-27,62,45,42,48,19,-100,92,60,1,30.00,29.92,11,-77,14,0.00
2013-3-28,66,47,48,51,3,-100,96,46,1,30.08,29.98,8,-139,12,0.00
2013-3-29,77,60,48,51,39,-48,77,53,1,30.07,30.00,9,2,13,0.00
2013-3-30,64,54,50,55,49,-100,96,83,62,30.06,29.98,8,-3,11,0.12
2013-3-31,65,46,49,57,28,-100,100,75,52,30.06,29.97,13,-140,21,0.24
2013-4-1,64,52,48,52,40,-100,98,79,1,30.15,30.02,8,-22,12,0.36
2013-4-2,70,51,45,54,37,-100,98,75,52,30.17,30.06,12,-67,16,0.01
2013-4-3,73,51,45,54,12,-100,96,44,1,30.12,29.97,10,-95,17,0.00
2013-4-4,54,50,46,53,-1,-100,98,47,1,30.10,29.96,13,-3,21,0.72
2013-4-5,61,50,48,51,-2,-100,98,34,1,30.16,30.09,9,-40,14,0.00
2013-4-6,60,47,46,51,-24,-100,75,20,1,30.19,30.11,17,-68,24,0.00
2013-4-7,62,51,46,50,30,-50,97,65,1,30.17,29.78,19,8,24,0.03
2013-4-8,65,52,40,45,30,-100,97,50,17,30.02,29.76,17,-2,25,0.00
2013-4-9,73,58,49,33,25,-100,45,31,17,30.10,30.02,13,-30,20,0.00
2013-4-10,82,66,59,54,37,-100,66,38,30,30.15,29.98,13,-39,22,0.00
2013-4-11,75,56,47,49,33,-100,86,55,29,30.00,29.82,11,-76,17,0.00
2013-4-12,75,53,44,52,30,-100,92,56,36,29.90,29.79,13,-88,17,0.00
2013-4-13,73,55,45,49,41,-100,86,63,39,29.88,29.78,15,-10,16,0.00
2013-4-14,71,49,42,44,32,-100,77,59,34,29.91,29.79,16,-40,21,0.00
2013-4-15,58,48,40,41,26,-34,76,45,3,29.93,29.81,12,4,19,0.00
2013-4-16,62,52,40,31,23,12,68,36,14,30.15,29.93,18,8,26,0.00
2013-4-17,66,52,46,29,17,-100,48,29,17,30.26,30.14,13,-49,27,0.00
2013-4-18,76,61,52,42,31,22,47,32,21,30.25,30.16,13,4,17,0.00
2013-4-19,79,63,52,51,42,36,65,46,24,30.21,30.04,11,3,16,0.00
2013-4-20,83,65,55,43,36,28,59,36,16,30.08,29.96,15,5,19,0.00
2013-4-21,86,68,53,46,39,-100,67,38,22,30.01,29.91,13,-10,17,0.00
2013-4-22,89,74,64,44,35,18,44,27,8,29.94,29.82,15,3,19,0.00
2013-4-23,85,63,50,37,17,-100,60,22,8,29.91,29.83,16,-45,25,0.00
2013-4-24,70,47,44,48,24,-100,92,59,43,29.92,29.78,13,-127,18,0.00
2013-4-25,67,42,43,48,18,-100,94,64,49,30.10,29.90,13,-176,20,0.00
2013-4-26,74,51,43,51,37,-100,97,71,44,30.21,30.09,13,-55,16,0.00
2013-4-27,81,56,42,53,36,-100,98,60,1,30.21,30.05,13,-6,16,0.00
2013-4-28,86,64,44,54,48,43,98,62,30,30.04,29.85,8,3,11,0.01
2013-4-29,90,72,61,52,45,-100,61,41,22,29.86,29.72,11,-11,17,0.00
2013-4-30,82,66,51,48,28,-100,80,36,6,29.82,29.74,22,-8,36,0.00
2013-5-1,84,71,59,26,16,9,20,12,9,30.05,29.81,24,8,36,0.00
2013-5-2,91,58,65,34,-9,-100,23,10,8,30.12,30.04,12,-252,16,0.00
2013-5-3,91,75,59,42,33,25,30,22,16,30.04,29.75,10,3,15,0.00
2013-5-4,88,68,50,48,37,20,92,38,13,29.75,29.53,14,5,24,0.00
2013-5-5,66,50,48,47,31,-100,93,65,45,29.79,29.57,12,-87,15,0.00
2013-5-6,63,39,49,54,9,-100,96,60,56,29.96,29.80,11,-267,12,0.19
2013-5-7,70,35,51,51,-13,-100,86,38,44,30.02,29.94,13,-402,17,0.00
2013-5-8,68,53,47,50,47,45,98,82,50,30.11,30.00,15,6,19,0.00
2013-5-9,72,54,46,50,47,44,98,80,45,30.14,30.05,15,6,22,0.00
2013-5-10,76,57,46,54,49,45,98,77,45,30.16,30.07,10,3,14,0.00
2013-5-11,90,65,47,56,51,46,98,67,29,30.12,30.02,8,2,12,0.00
2013-5-12,83,41,48,55,1,-100,97,48,31,30.11,29.97,13,-321,20,0.00
2013-5-13,81,57,46,55,33,-100,96,56,39,30.06,29.91,11,-111,15,0.00
2013-5-14,76,61,49,52,48,43,91,65,40,29.94,29.88,11,6,16,0.00
2013-5-15,76,54,44,46,33,-100,87,57,32,30.01,29.90,13,-66,20,0.00
2013-5-16,72,58,47,50,46,43,87,66,41,29.99,29.91,19,6,23,0.00
2013-5-17,71,54,44,44,39,-100,89,63,33,30.05,29.92,14,-13,24,0.00
2013-5-18,75,29,44,48,-30,-100,91,29,35,30.13,30.00,22,-516,22,0.00
2013-5-19,84,66,51,43,35,-100,70,38,13,30.10,29.95,13,-9,19,0.00
2013-5-20,90,70,53,45,25,-100,70,23,11,29.98,29.88,16,-55,20,0.00
2013-5-21,73,59,48,43,39,32,80,52,23,29.94,29.85,16,6,21,0.00
2013-5-22,68,53,41,36,28,17,65,40,15,30.00,29.86,13,5,19,0.00
2013-5-23,71,54,40,40,36,35,84,55,29,29.98,29.87,14,4,19,0.00
2013-5-24,73,48,43,42,20,-100,78,50,28,29.98,29.90,17,-118,17,0.00
2013-5-25,71,52,41,45,36,-100,90,62,33,29.99,29.91,14,-35,24,0.00
2013-5-26,72,51,47,49,28,-100,91,59,39,30.07,29.99,16,-114,28,0.00
2013-5-27,58,34,46,53,-6,-100,98,52,68,30.07,29.98,4,-368,5,0.05
2013-5-28,76,58,52,58,49,-100,98,77,43,29.98,29.89,0,-14,0,0.02
2013-5-29,77,61,52,51,46,-100,84,62,37,29.92,29.86,0,-10,0,0.00
2013-5-30,77,45,46,46,10,-100,90,46,27,29.96,29.87,11,-232,16,0.00
2013-5-31,90,55,52,47,14,-100,71,36,18,29.99,29.88,8,-206,16,0.00
2013-6-1,93,74,54,52,48,44,75,43,22,29.91,29.73,5,1,10,0.00
2013-6-2,85,66,51,50,48,45,86,55,28,29.73,29.64,7,1,14,0.00
2013-6-3,76,58,48,52,42,-100,97,64,41,29.82,29.66,13,-47,18,0.00
2013-6-4,74,45,46,51,14,-100,96,55,41,29.93,29.82,13,-218,19,0.00
2013-6-5,75,38,49,53,-2,-100,94,50,43,29.98,29.89,12,-338,15,0.00
2013-6-6,81,52,48,54,27,-100,97,60,38,29.94,29.82,8,-147,14,0.00
2013-6-7,95,69,48,57,50,-100,97,59,26,29.86,29.70,5,-8,12,0.00
2013-6-8,96,73,58,56,53,50,74,53,24,29.76,29.67,7,1,13,0.00
2013-6-9,70,58,51,52,50,48,93,76,51,29.84,29.75,18,7,25,0.00
2013-6-10,61,38,51,51,5,-100,95,59,65,29.94,29.78,14,-296,18,0.00
2013-6-11,79,61,50,54,47,-100,95,67,39,29.96,29.86,11,-16,17,0.00
2013-6-12,81,57,48,49,35,-100,90,56,26,29.94,29.87,15,-64,22,0.00
2013-6-13,83,56,47,46,17,-100,74,36,20,30.06,29.91,11,-166,18,0.00
2013-6-14,88,59,53,48,19,-100,84,32,13,29.97,29.78,13,-141,17,0.00
2013-6-15,75,58,48,52,45,-100,96,69,42,29.96,29.79,12,-23,15,0.00
2013-6-16,85,63,47,48,42,-100,88,54,26,30.04,29.94,13,-18,23,0.00
2013-6-17,83,60,48,51,41,-100,85,59,28,30.04,29.96,16,-34,21,0.00
2013-6-18,73,57,48,50,42,-100,97,66,28,29.98,29.91,19,-22,27,0.00
2013-6-19,77,57,46,45,30,-100,79,47,24,30.02,29.94,18,-78,20,0.00
2013-6-20,80,50,50,45,20,-100,75,47,26,29.97,29.88,12,-159,18,0.00
2013-6-21,85,64,51,48,40,-100,73,47,24,29.95,29.86,13,-31,19,0.00
2013-6-22,87,68,55,49,43,-100,79,47,17,29.91,29.77,15,-17,22,0.00
2013-6-23,70,58,51,57,52,47,93,81,60,29.82,29.76,15,6,18,0.00
2013-6-24,60,54,52,57,50,-100,98,93,77,29.90,29.76,11,-19,17,0.08
2013-6-25,60,52,55,59,12,-100,99,30,20,29.98,29.87,13,-99,21,0.39
2013-6-26,80,61,59,66,45,-100,99,73,48,30.03,29.96,12,-84,16,0.04
2013-6-27,93,66,56,62,45,-100,98,61,25,30.07,29.97,10,-75,15,0.00
2013-6-28,97,81,64,62,57,44,77,48,27,30.00,29.85,11,3,16,0.00
2013-6-29,102,82,65,57,54,48,69,40,21,29.87,29.75,9,2,16,0.00
2013-6-30,96,64,59,59,31,-100,87,44,26,29.81,29.70,8,-159,13,0.00
2013-7-1,98,67,57,59,44,-100,89,56,26,29.83,29.75,7,-78,11,0.00
2013-7-2,90,67,60,59,45,-100,87,56,31,29.88,29.76,13,-64,15,0.00
2013-7-3,96,73,57,60,56,53,92,60,28,29.88,29.74,11,2,17,0.00
2013-7-4,94,76,61,60,56,49,82,54,28,29.75,29.64,9,2,13,0.00
2013-7-5,75,57,52,54,38,-100,93,61,45,29.74,29.63,13,-70,18,0.00
2013-7-6,74,42,50,53,13,-100,97,64,48,29.80,29.73,10,-247,14,0.00
2013-7-7,85,62,49,54,50,37,98,71,21,29.83,29.76,9,2,13,0.00
2013-7-8,88,63,48,53,48,29,98,67,14,29.93,29.82,8,2,12,0.00
2013-7-9,94,80,60,55,49,35,79,38,15,29.99,29.89,9,3,13,0.00
2013-7-10,85,64,49,54,50,44,95,65,32,29.94,29.86,11,3,15,0.00
2013-7-11,76,58,47,54,49,46,98,78,44,29.92,29.84,11,4,16,0.00
2013-7-12,79,53,49,54,38,-100,98,75,41,29.93,29.84,11,-74,13,0.00
2013-7-13,86,56,49,54,34,-100,98,61,26,29.94,29.84,10,-108,13,0.00
2013-7-14,54,53,52,50,49,48,92,89,83,29.93,29.92,1,0,1,0.00
2013-7-15,74,61,47,53,50,46,98,70,46,29.90,29.80,15,8,21,0.00
2013-7-16,73,57,49,52,49,47,96,79,46,30.00,29.83,13,7,18,0.00
2013-7-17,81,61,49,56,25,-35,98,40,2,30.08,29.99,10,3,14,0.00
2013-7-18,87,65,48,54,51,47,98,67,29,30.04,29.91,9,3,13,0.00
2013-7-21,82,67,51,55,52,50,98,62,36,29.85,29.75,11,4,16,0.00
2013-7-22,85,60,54,56,42,-100,86,63,28,29.94,29.84,14,-61,26,0.00
2013-7-23,82,67,58,55,51,45,83,60,33,29.97,29.90,9,3,15,0.00
2013-7-24,90,70,54,54,50,43,86,55,22,29.96,29.87,9,3,13,0.00
2013-7-25,84,58,53,55,32,-100,90,54,35,29.97,29.88,13,-119,16,0.00
2013-7-26,84,62,48,55,51,47,98,70,37,30.07,29.96,11,4,15,0.00
2013-7-27,80,58,49,55,40,-100,98,66,41,29.99,29.82,10,-70,16,0.00
2013-7-28,75,58,48,54,50,-100,98,78,47,29.85,29.78,12,0,18,0.00
2013-7-29,72,56,49,53,50,47,97,81,50,29.99,29.80,13,7,19,0.00
2013-7-30,73,53,49,57,25,-100,94,48,3,30.09,29.97,18,-71,20,0.00
2013-7-31,76,59,48,53,49,46,98,74,41,30.06,29.95,16,6,20,0.00
2013-8-1,76,61,47,52,49,46,96,69,40,30.02,29.92,12,4,16,0.00
2013-8-2,83,63,50,53,50,46,93,67,29,29.95,29.87,9,2,14,0.00
2013-8-3,78,59,50,55,51,48,98,79,41,29.97,29.88,8,2,12,0.00
2013-8-4,75,57,48,53,50,47,98,79,45,29.99,29.92,10,3,17,0.00
2013-8-5,78,57,48,54,44,-100,98,73,39,30.01,29.91,10,-32,13,0.00
2013-8-6,75,56,47,53,49,46,98,82,44,30.02,29.93,15,5,23,0.00
2013-8-7,72,58,51,54,51,48,94,77,51,30.07,30.00,15,8,21,0.00
2013-8-8,76,59,50,54,49,-100,95,75,44,30.01,29.90,12,-10,17,0.00
2013-8-9,76,56,49,54,50,48,98,83,47,29.95,29.89,13,4,19,0.00
2013-8-10,78,57,51,56,44,-100,98,74,44,30.02,29.95,14,-50,18,0.00
2013-8-11,79,61,51,58,52,50,98,77,42,30.00,29.90,10,3,15,0.00
2013-8-12,82,61,50,57,51,46,98,73,36,29.98,29.90,8,3,12,0.01
2013-8-13,91,64,48,55,49,45,98,66,22,29.97,29.88,12,2,16,0.00
2013-8-14,85,67,52,56,51,47,90,62,30,29.94,29.86,10,3,17,0.00
2013-8-15,67,59,56,58,56,54,97,90,74,29.91,29.86,4,0,8,0.00
2013-8-16,89,69,57,62,56,47,98,70,29,29.95,29.90,12,3,18,0.00
2013-8-17,82,64,54,57,55,50,97,74,41,29.96,29.83,7,2,12,0.00
2013-8-18,95,73,55,59,55,52,98,61,26,29.87,29.75,7,2,13,0.00
2013-8-19,93,74,61,59,55,50,74,54,29,29.86,29.75,9,2,12,0.00
2013-8-20,84,65,56,57,54,52,92,70,38,29.87,29.78,11,3,14,0.00
2013-8-21,81,57,54,54,37,-100,96,64,38,29.91,29.82,11,-100,20,0.00
2013-8-22,78,60,50,53,50,47,97,72,39,29.94,29.85,12,4,19,0.00
2013-8-23,54,49,50,53,45,-100,98,94,93,29.91,29.85,6,-30,10,0.00
2013-8-24,82,72,60,55,53,51,80,54,36,29.85,29.80,14,7,20,0.00
2013-8-25,81,65,56,59,53,-100,97,72,44,29.90,29.83,14,-10,18,0.00
2013-8-26,81,63,55,56,49,-100,97,69,34,29.99,29.87,11,-21,17,0.00
2013-8-27,86,64,53,54,47,-100,92,61,30,29.88,29.77,11,-25,16,0.00
2013-8-28,85,66,53,59,55,51,97,72,39,29.89,29.79,11,3,17,0.00
2013-8-29,87,66,56,64,53,-100,98,72,36,30.02,29.89,11,-24,16,0.01
2013-8-30,92,67,58,59,42,-100,94,55,26,30.00,29.88,12,-79,15,0.00
2013-8-31,84,66,56,57,52,44,94,64,28,29.94,29.85,13,4,20,0.00
2013-9-1,83,64,54,56,52,48,90,70,30,29.91,29.84,13,3,20,0.00
2013-9-2,83,54,57,59,30,-100,92,62,38,29.92,29.85,12,-157,15,0.00
2013-9-3,77,62,55,55,40,-100,91,52,28,29.96,29.87,17,-41,22,0.00
2013-9-4,82,60,53,58,40,-100,98,63,32,30.00,29.88,12,-80,17,0.01
2013-9-5,83,65,51,54,51,44,96,65,27,29.97,29.90,13,4,21,0.00
2013-9-6,92,68,56,51,36,-100,77,41,19,29.95,29.79,9,-70,14,0.00
2013-9-7,95,76,66,49,37,-100,55,27,14,29.84,29.76,11,-28,16,0.00
2013-9-8,94,66,54,54,33,-100,92,43,18,29.84,29.73,9,-98,13,0.00
2013-9-9,94,69,59,55,43,-100,74,45,23,29.78,29.66,11,-45,17,0.00
2013-9-10,76,49,52,57,22,-100,97,62,52,29.86,29.68,13,-203,18,0.00
2013-9-11,78,59,57,57,44,-100,91,70,46,29.97,29.86,13,-66,18,0.00
2013-9-12,81,52,55,66,26,-100,95,60,18,29.96,29.84,11,-169,18,0.00
2013-9-13,82,52,52,58,31,-100,98,68,41,29.88,29.72,11,-143,14,0.00
2013-9-14,78,61,51,57,52,50,100,77,44,29.80,29.69,12,4,20,0.01
2013-9-15,82,60,50,56,52,49,98,78,33,29.83,29.72,14,4,20,0.00
2013-9-16,82,63,52,61,54,50,98,74,39,29.87,29.74,11,4,17,0.01
2013-9-17,79,62,50,52,49,43,97,67,30,29.85,29.75,12,4,17,0.00
2013-9-18,84,69,58,47,41,32,66,39,17,29.88,29.77,13,4,17,0.00
2013-9-19,90,70,56,45,40,26,62,36,17,29.83,29.72,9,2,14,0.00
2013-9-20,76,60,49,57,51,37,94,73,43,29.82,29.71,17,7,23,0.00
2013-9-21,64,57,51,61,54,48,99,90,58,29.87,29.76,17,7,22,0.82
2013-9-22,70,56,48,53,46,-100,93,75,44,29.97,29.87,11,-14,15,0.00
2013-9-23,82,66,53,55,51,47,82,61,32,30.00,29.90,11,2,15,0.00
2013-9-24,78,62,53,54,49,41,96,67,27,29.94,29.84,17,5,23,0.00
2013-9-25,73,53,49,44,26,-100,78,47,25,29.90,29.76,14,-97,19,0.00
2013-9-26,72,59,50,39,27,-100,63,34,19,29.97,29.78,14,-31,22,0.00
2013-9-27,79,64,54,33,29,25,38,27,15,30.07,29.97,15,4,18,0.00
2013-9-28,81,64,54,51,34,-100,86,36,14,30.06,29.97,12,-10,17,0.00
2013-9-29,72,58,53,58,50,-100,94,83,60,30.08,29.99,16,-18,19,0.00
2013-9-30,70,56,55,61,47,-100,98,87,70,30.03,29.93,11,-68,14,0.07
2013-10-1,76,58,45,52,47,44,96,72,37,29.99,29.91,9,2,12,0.00
2013-10-2,75,61,52,48,42,31,74,52,31,29.98,29.90,12,2,17,0.00
2013-10-3,70,58,49,36,25,-100,55,33,17,30.05,29.92,26,-17,37,0.00
2013-10-4,77,65,58,27,19,-100,26,18,12,30.07,29.98,22,-16,30,0.00
2013-10-5,84,68,60,26,21,16,24,17,11,30.16,30.07,9,3,12,0.00
2013-10-6,85,70,61,34,26,21,25,19,10,30.10,29.97,11,5,12,0.00
2013-10-7,83,68,56,40,26,-100,55,22,13,29.97,29.84,8,-10,13,0.00
2013-10-8,73,58,50,47,43,36,83,60,36,29.88,29.67,11,2,14,0.00
2013-10-9,70,56,44,46,41,32,90,61,28,29.71,29.59,13,2,19,0.00
2013-10-10,70,58,49,48,45,38,88,65,37,29.98,29.80,9,2,12,0.00
2013-10-11,70,53,44,51,43,37,98,72,38,30.07,29.96,8,1,12,0.00
2013-10-12,70,54,44,48,44,39,96,71,43,29.98,29.87,10,2,14,0.01
2013-10-13,74,59,50,42,36,25,72,44,17,30.04,29.88,10,2,15,0.00
2013-10-14,77,65,55,36,32,26,45,30,16,30.09,29.98,9,3,15,0.00
2013-10-15,78,66,57,32,25,20,36,22,12,30.02,29.94,13,4,19,0.00
2013-10-16,81,68,58,32,26,21,27,21,14,30.06,29.96,8,3,12,0.00
2013-10-17,81,67,58,32,26,-100,29,23,16,30.05,29.93,8,-11,12,0.00
2013-10-18,80,66,53,39,33,28,44,30,22,30.02,29.94,7,2,12,0.00
2013-10-19,84,68,59,40,35,31,40,30,18,30.04,29.96,7,2,13,0.00
2013-10-20,80,62,52,43,36,-100,64,41,21,29.99,29.88,7,-13,12,0.00
2013-10-21,75,53,44,48,33,-100,92,59,28,29.98,29.89,5,-69,9,0.00
2013-10-22,78,61,48,51,45,40,86,59,29,29.99,29.90,5,1,7,0.00
2013-10-23,75,56,45,49,45,42,89,68,32,29.95,29.87,6,1,8,0.00
2013-10-24,65,49,42,51,44,40,98,85,48,30.08,29.93,8,2,13,0.01
2013-10-25,72,55,44,51,44,23,96,69,38,30.15,30.07,7,1,10,0.00
2013-10-26,81,63,51,47,43,38,78,51,26,30.12,29.98,6,1,10,0.00
2013-10-27,60,45,43,49,30,-100,98,72,52,29.98,29.61,21,-82,24,0.00
2013-10-28,63,50,42,44,40,36,92,70,41,29.81,29.63,9,2,15,0.00
2013-10-29,61,48,45,45,35,-100,92,69,41,30.03,29.81,6,-37,12,0.00
2013-10-30,66,53,45,44,42,39,85,67,42,30.13,30.03,8,2,11,0.00
2013-10-31,72,58,47,43,40,39,75,54,30,30.16,30.05,7,1,11,0.00
2013-11-1,74,60,55,41,32,-100,56,39,18,30.13,29.99,10,-31,12,0.00
2013-11-2,71,54,51,49,31,-100,78,50,36,30.00,29.87,10,-71,15,0.00
2013-11-3,64,51,44,40,16,-100,65,29,15,30.02,29.89,10,-46,15,0.00
2013-11-4,66,55,46,24,18,-100,43,26,15,30.06,29.89,16,-20,32,0.00
2013-11-5,72,60,53,32,28,22,39,29,21,30.19,30.03,13,5,17,0.00
2013-11-6,68,61,54,35,30,26,42,31,24,30.24,30.14,12,5,13,0.00
2013-11-7,74,61,52,42,32,27,68,34,21,30.15,30.04,9,3,14,0.00
2013-11-8,74,58,50,47,40,36,68,53,31,30.05,29.92,10,2,15,0.00
2013-11-9,75,60,49,45,39,32,82,49,26,30.02,29.95,8,1,11,0.00
2013-11-10,66,53,46,49,45,40,95,75,48,30.09,29.98,8,1,11,0.00
2013-11-11,66,53,43,46,42,-100,96,68,40,30.17,30.05,11,-8,13,0.00
2013-11-12,70,59,53,46,40,35,69,50,31,30.25,30.13,8,1,11,0.00
2013-11-13,76,60,53,47,41,34,79,51,28,30.22,30.06,6,1,10,0.00
2013-11-14,59,51,44,51,45,32,98,83,50,30.07,29.84,6,0,10,0.00
2013-11-15,66,52,42,44,34,30,90,53,27,29.85,29.71,9,1,16,0.00
2013-11-16,64,50,40,45,40,33,93,72,34,29.90,29.73,10,2,13,0.00
2013-11-17,62,45,43,48,34,-100,97,78,56,30.06,29.89,5,-64,11,0.00
2013-11-18,57,46,42,45,36,-100,96,77,52,30.14,30.04,10,-40,16,0.01
2013-11-19,53,50,46,52,49,43,98,97,87,30.08,29.92,8,1,15,0.72
2013-11-20,54,50,48,54,45,-100,100,94,96,29.92,29.81,9,-40,15,0.67
2013-11-21,56,50,44,48,25,-100,99,45,19,29.97,29.87,31,3,40,0.01
2013-11-22,66,58,51,10,6,1,19,13,8,30.01,29.88,29,19,40,0.00
2013-11-23,65,54,47,35,17,-100,56,27,12,30.08,29.94,16,-12,23,0.00
2013-11-24,62,50,44,40,34,23,75,55,33,30.23,30.07,8,1,11,0.00
2013-11-25,62,50,44,40,38,36,75,64,41,30.31,30.23,10,4,12,0.00
2013-11-26,62,49,45,38,23,-100,68,44,32,30.25,30.02,10,-67,12,0.00
2013-11-27,61,53,47,39,32,-100,60,48,40,30.03,29.83,12,-16,14,0.00
2013-11-28,70,55,52,40,30,-100,53,43,30,30.05,29.85,6,-40,10,0.00
2013-11-29,68,56,49,41,38,35,63,52,35,30.19,30.03,7,1,8,0.00
2013-11-30,67,56,49,43,39,36,66,55,35,30.25,30.17,5,0,6,0.00
2013-12-1,68,58,51,43,40,36,64,52,36,30.31,30.20,6,0,10,0.00
2013-12-2,61,51,46,47,37,-100,90,68,57,30.20,29.92,8,-40,13,0.00
2013-12-3,54,44,40,48,25,-100,97,57,29,29.93,29.82,12,-39,17,0.00
2013-12-4,49,37,34,14,0,-100,41,25,15,30.08,29.93,18,-65,22,0.00
2013-12-5,49,34,31,27,-1,-100,67,31,20,30.15,30.06,8,-105,11,0.00
2013-12-6,44,38,30,42,30,23,98,75,49,30.18,29.89,17,3,30,0.39
2013-12-7,42,34,30,40,19,-100,98,68,35,30.25,29.89,16,-53,20,0.01
2013-12-8,42,34,28,23,15,4,74,48,27,30.32,30.23,9,3,13,0.00
2013-12-9,50,40,31,20,9,-1,51,29,17,30.41,30.29,12,4,16,0.00
2013-12-10,53,42,33,25,19,9,57,42,26,30.41,30.21,10,2,12,0.00
2013-12-11,59,46,38,27,20,-100,50,38,27,30.24,30.17,13,-16,15,0.00
2013-12-12,59,48,42,32,26,20,58,42,31,30.25,30.15,10,3,11,0.00
2013-12-13,58,45,39,34,23,-100,66,49,36,30.32,30.19,5,-58,7,0.00
2013-12-14,62,51,44,36,32,27,63,48,28,30.39,30.28,10,2,12,0.00
2013-12-15,62,44,47,34,10,-100,51,36,29,30.35,30.23,11,-139,11,0.00
2013-12-16,55,55,54,33,33,33,44,44,43,30.13,30.13,11,4,14,0.00
2013-12-17,58,55,53,34,31,29,46,40,35,30.05,30.03,13,3,13,0.00
2013-12-18,48,46,45,42,42,41,89,86,79,29.79,29.77,4,1,4,0.00
2013-12-19,51,48,46,17,12,7,26,24,20,29.86,29.83,28,12,30,0.00
2013-12-20,54,51,47,21,20,18,35,30,27,29.98,29.95,8,3,8,0.00
2013-12-21,62,57,46,42,39,35,68,52,45,30.04,29.97,5,1,9,0.00
2013-12-22,61,57,51,37,33,30,55,42,32,30.23,30.16,8,2,8,0.00
2013-12-23,58,53,51,37,36,34,55,52,45,30.33,30.27,9,3,10,0.00
2013-12-24,68,58,50,39,36,21,57,45,26,30.30,30.19,7,1,7,0.00
2013-12-25,69,61,54,34,25,16,35,25,20,30.28,30.19,8,4,10,0.00
2013-12-26,59,56,54,25,23,21,33,28,25,30.19,30.16,13,9,16,0.00
2013-12-27,62,49,46,33,17,-100,53,33,25,30.21,30.10,14,-54,16,0.00
2013-12-28,69,47,46,31,3,-100,54,25,13,30.13,30.01,14,-154,18,0.00
2013-12-29,66,57,49,25,12,5,36,17,11,30.17,30.05,13,6,28,0.00
2013-12-30,63,53,45,31,25,16,53,34,25,30.23,30.15,12,5,12,0.00
2013-12-31,62,52,45,34,29,20,56,41,28,30.25,30.14,10,1,11,0.00
2014-1-1,64,53,47,30,22,-100,48,32,22,30.19,30.09,9,-30,9,0.00
2014-1-2,68,55,50,34,28,-100,47,36,25,30.16,30.03,10,-2,11,0.00